Time;durP1;ratioP1;P1;durP2;ratioP2;P2;SDS_P1;SDS_P2;PMS_P1;PMS_P2;Temp;Humidity;BMP_temperature;BMP_pressure;BME280_temperature;BME280_humidity;BME280_pressure;Samples;Min_cycle;Max_cycle;Signal;HPM_P1;HPM_P2
2021/12/19 00:01:03;;;;;;;;;;;7.60;99.90;;;;;;5112462;28;20006;-66
2021/12/19 00:11:09;;;;;;;;;;;7.60;99.90;;;;;;5110710;28;19926;-66
2021/12/19 00:13:36;;;;;;;;;;;7.60;99.90;;;;;;5112242;28;19972;-66
2021/12/19 00:16:03;;;;;;;;;;;7.60;99.90;;;;;;5110493;28;19919;-68
2021/12/19 00:18:28;;;;;;;;;;;7.60;99.90;;;;;;5094149;28;20425;-66
2021/12/19 00:20:54;;;;;;;;;;;7.60;99.90;;;;;;5110642;28;19919;-66
2021/12/19 00:23:20;;;;;;;;;;;7.60;99.90;;;;;;5111992;28;19966;-67
2021/12/19 00:25:45;;;;;;;;;;;7.60;99.90;;;;;;5094091;28;19973;-66
2021/12/19 00:28:11;;;;;;;;;;;7.70;99.90;;;;;;5093564;28;20007;-65
2021/12/19 00:30:37;;;;;;;;;;;7.60;99.90;;;;;;5110830;28;20002;-66
2021/12/19 00:33:02;;;;;;;;;;;7.70;99.90;;;;;;5111163;28;19920;-66
2021/12/19 00:35:28;;;;;;;;;;;7.60;99.90;;;;;;5093798;28;19930;-66
2021/12/19 00:37:54;;;;;;;;;;;7.60;99.90;;;;;;5112066;28;19919;-66
2021/12/19 00:40:20;;;;;;;;;;;7.60;99.90;;;;;;5111751;28;20375;-66
2021/12/19 00:42:52;;;;;;;;;;;7.60;99.90;;;;;;5094197;28;19927;-65
2021/12/19 00:45:30;;;;;;;;;;;7.60;99.90;;;;;;5111442;28;20380;-66
2021/12/19 00:47:56;;;;;;;;;;;7.60;99.90;;;;;;5112162;28;19927;-66
2021/12/19 00:50:22;;;;;;;;;;;7.60;99.90;;;;;;5093260;28;19920;-65
2021/12/19 00:52:48;;;;;;;;;;;7.50;99.90;;;;;;5110916;28;20016;-65
2021/12/19 00:55:14;;;;;;;;;;;7.60;99.90;;;;;;5093280;28;20108;-67
2021/12/19 00:57:40;;;;;;;;;;;7.50;99.90;;;;;;5110894;28;19920;-66
2021/12/19 01:00:07;;;;;;;;;;;7.50;99.90;;;;;;5111793;28;20295;-66
2021/12/19 01:02:33;;;;;;;;;;;7.50;99.90;;;;;;5110496;28;19951;-67
2021/12/19 01:04:59;;;;;;;;;;;7.40;99.90;;;;;;5114172;28;19927;-66
2021/12/19 01:07:24;;;;;;;;;;;7.40;99.90;;;;;;5097053;28;19920;-67
2021/12/19 01:09:50;;;;;;;;;;;7.40;99.90;;;;;;5114083;28;19942;-66
2021/12/19 01:12:15;;;;;;;;;;;7.40;99.90;;;;;;5097153;28;20357;-65
2021/12/19 01:14:41;;;;;;;;;;;7.40;99.90;;;;;;5096914;28;19919;-66
2021/12/19 01:17:08;;;;;;;;;;;7.40;99.90;;;;;;5114141;28;19964;-66
2021/12/19 01:19:33;;;;;;;;;;;7.40;99.90;;;;;;5113700;28;19923;-65
2021/12/19 01:21:59;;;;;;;;;;;7.40;99.90;;;;;;5115369;28;19965;-66
2021/12/19 01:24:25;;;;;;;;;;;7.40;99.90;;;;;;5113840;28;20006;-67
2021/12/19 01:26:51;;;;;;;;;;;7.40;99.90;;;;;;5114198;28;19919;-67
2021/12/19 01:29:16;;;;;;;;;;;7.30;99.90;;;;;;5096765;28;19921;-65
2021/12/19 01:31:43;;;;;;;;;;;7.40;99.90;;;;;;5113976;28;20295;-66
2021/12/19 01:34:12;;;;;;;;;;;7.30;99.90;;;;;;5097183;28;20368;-67
2021/12/19 01:36:39;;;;;;;;;;;7.40;99.90;;;;;;5097170;28;19919;-66
2021/12/19 01:39:05;;;;;;;;;;;7.30;99.90;;;;;;5114935;28;20276;-67
2021/12/19 01:41:31;;;;;;;;;;;7.30;99.90;;;;;;5114647;28;19927;-66
2021/12/19 01:43:56;;;;;;;;;;;7.30;99.90;;;;;;5114043;28;20261;-67
2021/12/19 01:46:22;;;;;;;;;;;7.30;99.90;;;;;;5113190;28;19919;-66
2021/12/19 01:48:48;;;;;;;;;;;7.30;99.90;;;;;;5113319;28;19919;-66
2021/12/19 01:51:13;;;;;;;;;;;7.30;99.90;;;;;;5113535;28;19919;-66
2021/12/19 01:53:39;;;;;;;;;;;7.30;99.90;;;;;;5096162;28;19943;-66
2021/12/19 01:56:07;;;;;;;;;;;7.30;99.90;;;;;;5096815;28;19919;-65
2021/12/19 01:58:32;;;;;;;;;;;7.30;99.90;;;;;;5114384;28;19920;-66
2021/12/19 02:00:58;;;;;;;;;;;7.30;99.90;;;;;;5113628;28;19926;-65
2021/12/19 02:03:24;;;;;;;;;;;7.30;99.90;;;;;;5112978;28;20024;-66
2021/12/19 02:05:49;;;;;;;;;;;7.30;99.90;;;;;;5113548;28;19920;-65
2021/12/19 02:08:16;;;;;;;;;;;7.30;99.90;;;;;;5113345;28;19926;-66
2021/12/19 02:10:42;;;;;;;;;;;7.30;99.90;;;;;;5112964;28;19923;-67
2021/12/19 02:13:10;;;;;;;;;;;7.30;99.90;;;;;;5113329;28;19919;-67
2021/12/19 02:15:36;;;;;;;;;;;7.30;99.90;;;;;;5111852;28;20291;-67
2021/12/19 02:18:11;;;;;;;;;;;7.30;99.90;;;;;;5113301;28;19937;-66
2021/12/19 02:20:39;;;;;;;;;;;7.30;99.90;;;;;;5112160;28;19920;-67
2021/12/19 02:23:04;;;;;;;;;;;7.20;99.90;;;;;;5096062;28;19920;-66
2021/12/19 02:25:31;;;;;;;;;;;7.20;99.90;;;;;;5113665;28;20047;-66
2021/12/19 02:27:56;;;;;;;;;;;7.20;99.90;;;;;;5112696;28;20178;-66
2021/12/19 02:30:22;;;;;;;;;;;7.10;99.90;;;;;;5112365;28;19974;-66
2021/12/19 02:32:48;;;;;;;;;;;7.10;99.90;;;;;;5112597;28;20293;-66
2021/12/19 02:35:18;;;;;;;;;;;7.10;99.90;;;;;;5112867;28;19920;-68
2021/12/19 02:48:30;;;;;;;;;;;7.00;99.90;;;;;;5112333;28;20324;-66
2021/12/19 02:50:56;;;;;;;;;;;7.00;99.90;;;;;;5113445;28;20015;-65
2021/12/19 02:53:30;;;;;;;;;;;7.00;99.90;;;;;;5113421;28;19920;-71
2021/12/19 02:55:55;;;;;;;;;;;7.00;99.90;;;;;;5112502;28;20209;-66
2021/12/19 02:58:21;;;;;;;;;;;7.00;99.90;;;;;;5112576;28;19973;-66
2021/12/19 03:00:48;;;;;;;;;;;7.00;99.90;;;;;;5113344;28;19927;-66
2021/12/19 03:03:14;;;;;;;;;;;6.90;99.90;;;;;;5112470;28;19920;-65
2021/12/19 03:05:40;;;;;;;;;;;6.90;99.90;;;;;;5112879;28;19964;-67
2021/12/19 03:08:08;;;;;;;;;;;6.90;99.90;;;;;;5113371;27;19920;-66
2021/12/19 03:18:34;;;;;;;;;;;6.90;99.90;;;;;;5111751;28;20274;-67
2021/12/19 03:21:00;;;;;;;;;;;6.90;99.90;;;;;;5111712;28;19919;-66
2021/12/19 03:23:25;;;;;;;;;;;6.90;99.90;;;;;;5111699;28;20015;-71
2021/12/19 03:25:51;;;;;;;;;;;6.90;99.90;;;;;;5111069;28;19949;-66
2021/12/19 03:28:17;;;;;;;;;;;6.90;99.90;;;;;;5111640;28;19945;-67
2021/12/19 03:30:44;;;;;;;;;;;6.90;99.90;;;;;;5112307;28;19920;-65
2021/12/19 03:33:11;;;;;;;;;;;6.90;99.90;;;;;;5095019;28;19978;-66
2021/12/19 03:35:36;;;;;;;;;;;6.90;99.90;;;;;;5094409;28;19923;-67
2021/12/19 03:38:04;;;;;;;;;;;6.90;99.90;;;;;;5094877;28;19919;-66
2021/12/19 03:40:37;;;;;;;;;;;6.90;99.90;;;;;;5111085;28;19920;-66
2021/12/19 03:43:05;;;;;;;;;;;6.90;99.90;;;;;;5111800;28;19920;-65
2021/12/19 03:45:31;;;;;;;;;;;6.90;99.90;;;;;;5112397;28;20014;-67
2021/12/19 03:47:56;;;;;;;;;;;6.90;99.90;;;;;;5111695;28;19996;-65
2021/12/19 03:50:23;;;;;;;;;;;6.90;99.90;;;;;;5111315;28;20344;-66
2021/12/19 03:52:53;;;;;;;;;;;7.00;99.90;;;;;;5111357;28;20353;-67
2021/12/19 03:55:19;;;;;;;;;;;6.90;99.90;;;;;;5094722;28;19920;-66
2021/12/19 03:57:45;;;;;;;;;;;6.90;99.90;;;;;;5094256;28;19920;-66
2021/12/19 04:00:12;;;;;;;;;;;6.90;99.90;;;;;;5111390;28;19926;-66
2021/12/19 04:02:38;;;;;;;;;;;6.90;99.90;;;;;;5111122;28;19926;-66
2021/12/19 04:05:04;;;;;;;;;;;6.90;99.90;;;;;;5111338;28;19920;-66
2021/12/19 04:07:29;;;;;;;;;;;6.90;99.90;;;;;;5094327;28;19919;-62
2021/12/19 04:09:55;;;;;;;;;;;7.00;99.90;;;;;;5094026;28;19920;-62
2021/12/19 04:12:24;;;;;;;;;;;7.00;99.90;;;;;;5112500;28;20014;-62
2021/12/19 04:14:50;;;;;;;;;;;7.00;99.90;;;;;;5110818;28;19973;-62
2021/12/19 04:17:15;;;;;;;;;;;7.00;99.90;;;;;;5112575;28;19920;-62
2021/12/19 04:19:41;;;;;;;;;;;7.00;99.90;;;;;;5111794;28;20357;-62
2021/12/19 04:22:06;;;;;;;;;;;7.00;99.90;;;;;;5111364;28;20352;-62
2021/12/19 04:24:32;;;;;;;;;;;7.00;99.90;;;;;;5110869;28;19920;-62
2021/12/19 04:26:58;;;;;;;;;;;7.00;99.90;;;;;;5110685;28;19926;-62
2021/12/19 04:29:25;;;;;;;;;;;7.00;99.90;;;;;;5111975;28;19919;-60
2021/12/19 04:31:51;;;;;;;;;;;7.00;99.90;;;;;;5111599;28;20407;-62
2021/12/19 04:34:17;;;;;;;;;;;7.10;99.90;;;;;;5111098;28;19919;-62
2021/12/19 04:36:46;;;;;;;;;;;7.10;99.90;;;;;;5111739;28;19920;-62
2021/12/19 04:57:50;;;;;;;;;;;7.10;99.90;;;;;;5115558;28;19938;-62
2021/12/19 05:00:30;;;;;;;;;;;7.10;99.90;;;;;;5098990;28;19930;-61
2021/12/19 05:03:02;;;;;;;;;;;7.10;99.90;;;;;;5115424;28;19923;-60
2021/12/19 05:05:59;;;;;;;;;;;7.10;99.90;;;;;;5115577;28;19927;-60
2021/12/19 05:14:08;;;;;;;;;;;7.10;99.90;;;;;;5115216;28;20379;-61
2021/12/19 05:16:37;;;;;;;;;;;7.10;99.90;;;;;;5115311;28;19927;-60
2021/12/19 05:19:08;;;;;;;;;;;7.20;99.90;;;;;;5115088;28;19946;-61
2021/12/19 05:21:37;;;;;;;;;;;7.20;99.90;;;;;;5115310;28;19920;-61
2021/12/19 05:24:20;;;;;;;;;;;7.20;99.90;;;;;;5114832;28;20384;-60
2021/12/19 05:26:47;;;;;;;;;;;7.20;99.90;;;;;;5114465;28;20396;-60
2021/12/19 05:29:13;;;;;;;;;;;7.20;99.90;;;;;;5113766;28;20369;-61
2021/12/19 05:31:39;;;;;;;;;;;7.10;99.90;;;;;;5097204;28;19942;-61
2021/12/19 05:34:04;;;;;;;;;;;7.10;99.90;;;;;;5114596;28;20014;-61
2021/12/19 05:47:25;;;;;;;;;;;7.10;99.90;;;;;;5113897;28;19927;-60
2021/12/19 05:49:50;;;;;;;;;;;7.10;99.90;;;;;;5114281;28;20270;-62
2021/12/19 05:52:16;;;;;;;;;;;7.10;99.90;;;;;;5113994;28;20018;-62
2021/12/19 05:54:42;;;;;;;;;;;7.10;99.90;;;;;;5114613;28;19927;-61
2021/12/19 05:57:10;;;;;;;;;;;7.10;99.90;;;;;;5114813;28;19945;-61
2021/12/19 05:59:36;;;;;;;;;;;7.20;99.90;;;;;;5114556;28;20316;-62
2021/12/19 06:02:02;;;;;;;;;;;7.10;99.90;;;;;;5114027;28;20027;-62
2021/12/19 06:04:27;;;;;;;;;;;7.10;99.90;;;;;;5114673;28;19927;-63
2021/12/19 06:06:53;;;;;;;;;;;7.10;99.90;;;;;;5113259;28;19919;-62
2021/12/19 06:09:18;;;;;;;;;;;7.10;99.90;;;;;;5114348;28;19920;-61
2021/12/19 06:11:44;;;;;;;;;;;7.10;99.90;;;;;;5114395;28;19927;-62
2021/12/19 06:14:10;;;;;;;;;;;7.10;99.90;;;;;;5114196;28;19919;-62
2021/12/19 06:16:35;;;;;;;;;;;7.10;99.90;;;;;;5113644;28;19978;-62
2021/12/19 06:19:01;;;;;;;;;;;7.10;99.90;;;;;;5113837;28;20158;-61
2021/12/19 06:21:27;;;;;;;;;;;7.10;99.90;;;;;;5114231;28;19919;-61
2021/12/19 06:23:52;;;;;;;;;;;7.10;99.90;;;;;;5113983;28;19926;-61
2021/12/19 06:26:18;;;;;;;;;;;7.10;99.90;;;;;;5112863;28;19919;-62
2021/12/19 06:28:44;;;;;;;;;;;7.10;99.90;;;;;;5114211;28;19919;-62
2021/12/19 06:31:09;;;;;;;;;;;7.10;99.90;;;;;;5112279;28;19927;-61
2021/12/19 06:33:35;;;;;;;;;;;7.10;99.90;;;;;;5112810;28;19927;-61
2021/12/19 06:36:01;;;;;;;;;;;7.10;99.90;;;;;;5112544;28;19920;-62
2021/12/19 06:38:26;;;;;;;;;;;7.10;99.90;;;;;;5113859;28;19930;-62
2021/12/19 06:40:52;;;;;;;;;;;7.10;99.90;;;;;;5113490;28;19919;-62
2021/12/19 06:43:17;;;;;;;;;;;7.10;99.90;;;;;;5095659;28;19919;-62
2021/12/19 06:45:43;;;;;;;;;;;7.10;99.90;;;;;;5112871;28;19920;-61
2021/12/19 06:48:08;;;;;;;;;;;7.10;99.90;;;;;;5112301;28;19920;-61
2021/12/19 06:50:34;;;;;;;;;;;7.10;99.90;;;;;;5113285;28;19971;-62
2021/12/19 06:53:00;;;;;;;;;;;7.10;99.90;;;;;;5112383;28;19973;-62
2021/12/19 06:55:25;;;;;;;;;;;7.10;99.90;;;;;;5113696;28;19923;-62
2021/12/19 06:57:52;;;;;;;;;;;7.10;99.90;;;;;;5112427;28;19924;-61
2021/12/19 07:00:19;;;;;;;;;;;7.10;99.90;;;;;;5112000;28;19919;-62
2021/12/19 07:02:45;;;;;;;;;;;7.10;99.90;;;;;;5113191;28;19919;-61
2021/12/19 07:05:11;;;;;;;;;;;7.10;99.90;;;;;;5113080;28;19926;-62
2021/12/19 07:07:37;;;;;;;;;;;7.10;99.90;;;;;;5113393;27;19949;-62
2021/12/19 07:10:03;;;;;;;;;;;7.10;99.90;;;;;;5112491;28;19919;-62
2021/12/19 07:12:28;;;;;;;;;;;7.10;99.90;;;;;;5112007;28;19920;-62
2021/12/19 07:14:55;;;;;;;;;;;7.10;99.90;;;;;;5112935;28;19926;-65
2021/12/19 07:17:20;;;;;;;;;;;7.10;99.90;;;;;;5112857;28;19919;-61
2021/12/19 07:19:46;;;;;;;;;;;7.10;99.90;;;;;;5111660;28;19946;-63
2021/12/19 07:33:57;;;;;;;;;;;7.10;99.90;;;;;;5102097;27;1989930;-64
2021/12/19 07:36:29;;;;;;;;;;;7.10;99.90;;;;;;5170357;27;19923;-60
2021/12/19 07:39:04;;;;;;;;;;;7.10;99.90;;;;;;5152651;27;19927;-61
2021/12/19 07:41:30;;;;;;;;;;;7.10;99.90;;;;;;5146086;27;19946;-62
2021/12/19 07:43:55;;;;;;;;;;;7.10;99.90;;;;;;5129395;27;19923;-62
2021/12/19 07:46:21;;;;;;;;;;;7.10;99.90;;;;;;5139470;27;19938;-61
2021/12/19 07:48:46;;;;;;;;;;;7.10;99.90;;;;;;5113810;27;20403;-62
2021/12/19 07:51:12;;;;;;;;;;;7.20;99.90;;;;;;5157298;27;19926;-61
2021/12/19 07:53:38;;;;;;;;;;;7.10;99.90;;;;;;5150743;27;19927;-61
2021/12/19 07:56:04;;;;;;;;;;;7.10;99.90;;;;;;5169557;27;19931;-62
2021/12/19 07:58:29;;;;;;;;;;;7.10;99.90;;;;;;5158545;27;19931;-62
2021/12/19 08:00:55;;;;;;;;;;;7.10;99.90;;;;;;5098843;27;20381;-61
2021/12/19 08:03:22;;;;;;;;;;;7.10;99.90;;;;;;5150464;27;19923;-62
2021/12/19 08:05:48;;;;;;;;;;;7.10;99.90;;;;;;5151136;27;19937;-61
2021/12/19 08:08:17;;;;;;;;;;;7.10;99.90;;;;;;5169185;27;20288;-61
2021/12/19 08:13:09;;;;;;;;;;;7.20;99.90;;;;;;5168127;27;20018;-61
2021/12/19 08:15:36;;;;;;;;;;;7.20;99.90;;;;;;5169017;27;19923;-62
2021/12/19 08:18:01;;;;;;;;;;;7.20;99.90;;;;;;5170024;27;19927;-62
2021/12/19 08:20:27;;;;;;;;;;;7.20;99.90;;;;;;5168804;27;19956;-61
2021/12/19 08:22:53;;;;;;;;;;;7.20;99.90;;;;;;5144948;27;20014;-61
2021/12/19 08:25:19;;;;;;;;;;;7.20;99.90;;;;;;5168184;27;19929;-60
2021/12/19 08:27:45;;;;;;;;;;;7.20;99.90;;;;;;5169418;27;20046;-60
2021/12/19 08:30:11;;;;;;;;;;;7.20;99.90;;;;;;5168638;27;20434;-61
2021/12/19 08:32:37;;;;;;;;;;;7.30;99.90;;;;;;5167896;27;19934;-62
2021/12/19 08:35:04;;;;;;;;;;;7.20;99.90;;;;;;5150214;27;19923;-61
2021/12/19 08:37:29;;;;;;;;;;;7.30;99.90;;;;;;5168442;27;19980;-61
2021/12/19 08:39:55;;;;;;;;;;;7.20;99.90;;;;;;5150577;27;20026;-62
2021/12/19 08:42:21;;;;;;;;;;;7.30;99.90;;;;;;5149961;27;19946;-61
2021/12/19 08:44:47;;;;;;;;;;;7.30;99.90;;;;;;5138091;27;19935;-62
2021/12/19 08:47:13;;;;;;;;;;;7.30;99.90;;;;;;5136447;27;19934;-62
2021/12/19 08:49:40;;;;;;;;;;;7.30;99.90;;;;;;5136241;27;19934;-59
2021/12/19 08:52:06;;;;;;;;;;;7.30;99.90;;;;;;5136323;27;19923;-59
2021/12/19 08:54:32;;;;;;;;;;;7.30;99.90;;;;;;5131133;27;19933;-60
2021/12/19 08:56:58;;;;;;;;;;;7.30;99.90;;;;;;5136194;27;19923;-61
2021/12/19 08:59:24;;;;;;;;;;;7.30;99.90;;;;;;5154126;27;20297;-61
2021/12/19 09:01:49;;;;;;;;;;;7.30;99.90;;;;;;5136555;27;19931;-61
2021/12/19 09:04:15;;;;;;;;;;;7.30;99.90;;;;;;5134784;27;20331;-61
2021/12/19 09:06:41;;;;;;;;;;;7.40;99.90;;;;;;5154401;27;19923;-62
2021/12/19 09:09:07;;;;;;;;;;;7.40;99.90;;;;;;5135714;27;19923;-61
2021/12/19 09:11:33;;;;;;;;;;;7.30;99.90;;;;;;5135106;27;20389;-61
2021/12/19 09:13:58;;;;;;;;;;;7.40;99.90;;;;;;5136410;27;19959;-61
2021/12/19 09:16:24;;;;;;;;;;;7.30;99.90;;;;;;5153802;27;19967;-61
2021/12/19 09:18:50;;;;;;;;;;;7.40;99.90;;;;;;5128012;27;20362;-61
2021/12/19 09:21:16;;;;;;;;;;;7.40;99.90;;;;;;5127660;27;20060;-60
2021/12/19 09:23:41;;;;;;;;;;;7.40;99.90;;;;;;5154560;27;19933;-60
2021/12/19 09:26:07;;;;;;;;;;;7.40;99.90;;;;;;5124771;27;19927;-60
2021/12/19 09:28:33;;;;;;;;;;;7.40;99.90;;;;;;5119923;27;19923;-62
2021/12/19 09:30:58;;;;;;;;;;;7.50;99.90;;;;;;5154116;27;19923;-60
2021/12/19 09:33:24;;;;;;;;;;;7.40;99.90;;;;;;5153678;27;20325;-61
2021/12/19 09:35:50;;;;;;;;;;;7.40;99.90;;;;;;5118422;27;19933;-61
2021/12/19 09:38:15;;;;;;;;;;;7.40;99.90;;;;;;5153441;27;20658;-64
2021/12/19 09:40:43;;;;;;;;;;;7.50;99.90;;;;;;5135529;27;19927;-60
2021/12/19 09:45:59;;;;;;;;;;;7.50;99.90;;;;;;5154227;27;19923;-61
2021/12/19 09:48:26;;;;;;;;;;;7.50;99.90;;;;;;5153654;27;20284;-60
2021/12/19 09:50:51;;;;;;;;;;;7.50;99.90;;;;;;5135695;27;19927;-61
2021/12/19 09:53:17;;;;;;;;;;;7.50;99.90;;;;;;5152928;27;20257;-64
2021/12/19 09:55:43;;;;;;;;;;;7.50;99.90;;;;;;5152828;27;20318;-60
2021/12/19 09:58:09;;;;;;;;;;;7.50;99.90;;;;;;5135539;27;19927;-61
2021/12/19 10:00:35;;;;;;;;;;;7.50;99.90;;;;;;5153078;27;20447;-60
2021/12/19 10:03:00;;;;;;;;;;;7.50;99.90;;;;;;5134930;27;19937;-61
2021/12/19 10:05:26;;;;;;;;;;;7.60;99.90;;;;;;5146039;27;19935;-60
2021/12/19 10:07:53;;;;;;;;;;;7.50;99.90;;;;;;5133141;27;19948;-60
2021/12/19 10:10:27;;;;;;;;;;;7.50;99.90;;;;;;5150697;27;19927;-60
2021/12/19 10:12:57;;;;;;;;;;;7.50;99.90;;;;;;5133459;27;19927;-61
2021/12/19 10:15:38;;;;;;;;;;;7.50;99.90;;;;;;5123581;27;19923;-61
2021/12/19 10:18:11;;;;;;;;;;;7.50;99.90;;;;;;5133549;27;20009;-61
2021/12/19 10:20:47;;;;;;;;;;;7.50;99.90;;;;;;5144550;27;20030;-61
2021/12/19 10:23:33;;;;;;;;;;;7.50;99.90;;;;;;5152416;27;19934;-61
2021/12/19 10:26:09;;;;;;;;;;;7.50;99.90;;;;;;5131212;27;20409;-63
2021/12/19 10:28:55;;;;;;;;;;;7.60;99.90;;;;;;5139477;27;19927;-61
2021/12/19 10:35:46;;;;;;;12.77;2.90;;;7.60;99.90;;;;;;5165861;27;20116;-64
2021/12/19 10:38:13;;;;;;;;;;;7.60;99.90;;;;;;5159200;27;19923;-61
2021/12/19 10:40:43;;;;;;;;;;;7.60;99.90;;;;;;5154648;27;19919;-61
2021/12/19 10:43:16;;;;;;;;;;;7.60;99.90;;;;;;5114056;28;19920;-61
2021/12/19 10:45:44;;;;;;;;;;;7.70;99.90;;;;;;5112081;27;19930;-60
2021/12/19 10:48:20;;;;;;;;;;;7.70;99.90;;;;;;5149405;27;20395;-60
2021/12/19 10:50:51;;;;;;;;;;;7.70;99.90;;;;;;5128881;27;19923;-63
2021/12/19 10:53:17;;;;;;;;;;;7.80;99.90;;;;;;5143110;27;19930;-61
2021/12/19 10:55:45;;;;;;;;;;;7.80;99.90;;;;;;5147051;27;20342;-60
2021/12/19 10:58:38;;;;;;;;;;;7.80;99.90;;;;;;5157429;27;19929;-61
2021/12/19 11:01:06;;;;;;;;;;;7.80;99.90;;;;;;5144853;27;19920;-61
2021/12/19 11:03:36;;;;;;;;;;;7.80;99.90;;;;;;5148027;27;19919;-62
2021/12/19 11:06:12;;;;;;;;;;;7.80;99.90;;;;;;5130376;27;19919;-61
2021/12/19 11:08:39;;;;;;;;;;;7.80;99.90;;;;;;5130333;27;19919;-62
2021/12/19 11:11:04;;;;;;;;;;;7.80;99.90;;;;;;5147893;27;19972;-61
2021/12/19 11:13:30;;;;;;;;;;;7.90;99.90;;;;;;5130405;27;19920;-61
2021/12/19 11:15:56;;;;;;;;;;;7.90;99.90;;;;;;5149593;27;19926;-60
2021/12/19 11:18:21;;;;;;;;;;;7.90;99.90;;;;;;5122900;27;20409;-61
2021/12/19 11:20:47;;;;;;;;;;;7.90;99.90;;;;;;5148475;27;20005;-60
2021/12/19 11:23:13;;;;;;;;;;;7.90;99.90;;;;;;5149096;27;20364;-60
2021/12/19 11:25:38;;;;;;;;;;;7.90;99.90;;;;;;5129367;27;19925;-61
2021/12/19 11:28:04;;;;;;;;;;;7.90;99.90;;;;;;5149426;27;19932;-61
2021/12/19 11:30:30;;;;;;;;;;;7.90;99.90;;;;;;5147846;27;19930;-61
2021/12/19 11:32:59;;;;;;;;;;;7.90;99.90;;;;;;5148108;27;19945;-60
2021/12/19 11:35:28;;;;;;;;;;;7.90;99.90;;;;;;5147923;27;19982;-62
2021/12/19 11:37:56;;;;;;;;;;;7.90;99.90;;;;;;5148514;27;20023;-61
2021/12/19 11:40:22;;;;;;;;;;;8.00;99.90;;;;;;5148902;27;20021;-60
2021/12/19 11:42:48;;;;;;;;;;;8.00;99.90;;;;;;5129950;27;20317;-60
2021/12/19 11:45:33;;;;;;;;;;;8.00;99.90;;;;;;5144018;27;19923;-59
2021/12/19 11:48:06;;;;;;;;;;;8.00;99.90;;;;;;5134426;27;20381;-60
2021/12/19 11:50:34;;;;;;;;;;;8.10;99.90;;;;;;5134422;27;19926;-59
2021/12/19 11:53:08;;;;;;;;;;;8.10;99.90;;;;;;5135045;27;20350;-60
2021/12/19 11:55:35;;;;;;;;;;;8.00;99.90;;;;;;5114984;27;20336;-60
2021/12/19 11:58:07;;;;;;;;;;;8.10;99.90;;;;;;5099414;27;19919;-60
2021/12/19 12:00:34;;;;;;;;;;;8.10;99.90;;;;;;5133668;27;20325;-60
2021/12/19 12:03:09;;;;;;;;;;;8.10;99.90;;;;;;5116334;27;20261;-61
2021/12/19 12:05:34;;;;;;;;;;;8.10;99.90;;;;;;5114777;27;19938;-60
2021/12/19 12:08:10;;;;;;;;;;;8.20;99.90;;;;;;5134149;27;19923;-61
2021/12/19 12:10:59;;;;;;;;;;;8.10;99.90;;;;;;5133724;27;19972;-63
2021/12/19 12:13:25;;;;;;;;;;;8.10;99.90;;;;;;5134482;27;20024;-60
2021/12/19 12:15:52;;;;;;;;;;;8.10;99.90;;;;;;5132493;27;19965;-61
2021/12/19 12:18:34;;;;;;;;;;;8.10;99.90;;;;;;5134428;27;19963;-60
2021/12/19 12:21:17;;;;;;;;;;;8.10;99.90;;;;;;5133702;27;19930;-60
2021/12/19 12:23:55;;;;;;;;;;;8.10;99.90;;;;;;5133772;27;20052;-60
2021/12/19 12:26:26;;;;;;;;;;;8.10;99.90;;;;;;5132341;27;20045;-61
2021/12/19 12:28:52;;;;;;;;;;;8.10;99.90;;;;;;5114066;27;19924;-60
2021/12/19 12:31:17;;;;;;;;;;;8.20;99.90;;;;;;5133217;27;19931;-63
2021/12/19 12:33:43;;;;;;;;;;;8.10;99.90;;;;;;5114812;27;19993;-64
2021/12/19 12:36:09;;;;;;;;;;;8.10;99.90;;;;;;5131560;27;19923;-64
2021/12/19 12:38:34;;;;;;;;;;;8.10;99.90;;;;;;5100400;28;19938;-66
2021/12/19 12:41:09;;;;;;;;;;;8.20;99.90;;;;;;5134209;27;19930;-63
2021/12/19 12:43:36;;;;;;;;;;;8.20;99.90;;;;;;5113605;27;20360;-63
2021/12/19 12:46:07;;;;;;;;;;;8.30;99.90;;;;;;5133473;27;20304;-63
2021/12/19 12:48:41;;;;;;;;;;;8.20;99.90;;;;;;5098330;27;20368;-62
2021/12/19 12:51:17;;;;;;;;;;;8.30;99.90;;;;;;5112188;27;19931;-62
2021/12/19 12:53:48;;;;;;;;;;;8.30;99.90;;;;;;5094386;28;19923;-63
2021/12/19 12:56:19;;;;;;;;;;;8.20;99.90;;;;;;5095127;28;20343;-64
2021/12/19 12:58:47;;;;;;;;;;;8.30;99.90;;;;;;5111866;28;19923;-62
2021/12/19 13:01:12;;;;;;;;;;;8.20;99.90;;;;;;5096086;27;19968;-61
2021/12/19 13:03:38;;;;;;;;;;;8.30;99.90;;;;;;5129735;27;19923;-64
2021/12/19 13:06:04;;;;;;;;;;;8.20;99.90;;;;;;5078034;28;19988;-62
2021/12/19 13:08:29;;;;;;;;;;;8.20;99.90;;;;;;5127180;27;19923;-62
2021/12/19 13:10:55;;;;;;;;;;;8.20;99.90;;;;;;5114795;27;19923;-61
2021/12/19 13:13:25;;;;;;;;;;;8.20;99.90;;;;;;5113477;27;19956;-62
2021/12/19 13:15:51;;;;;;;;;;;8.20;99.90;;;;;;5132532;27;20055;-62
2021/12/19 13:18:16;;;;;;;;;;;8.20;99.90;;;;;;5114650;27;20100;-62
2021/12/19 13:20:42;;;;;;;;;;;8.20;99.90;;;;;;5132796;27;19923;-63
2021/12/19 13:23:07;;;;;;;;;;;8.20;99.90;;;;;;5131310;27;19950;-62
2021/12/19 13:25:42;;;;;;;;;;;8.20;99.90;;;;;;5132923;27;19919;-62
2021/12/19 13:28:12;;;;;;;;;;;8.20;99.90;;;;;;5114676;27;20391;-62
2021/12/19 13:30:42;;;;;;;;;;;8.20;99.90;;;;;;5114584;27;19965;-63
2021/12/19 13:33:09;;;;;;;;;;;8.30;99.90;;;;;;5107503;28;20373;-62
2021/12/19 13:35:56;;;;;;;;;;;8.30;99.90;;;;;;5129392;27;20392;-62
2021/12/19 13:38:26;;;;;;;;;;;8.30;99.90;;;;;;5131532;27;19931;-62
2021/12/19 13:40:54;;;;;;;;;;;8.40;99.90;;;;;;5131951;27;19919;-65
2021/12/19 13:43:24;;;;;;;;;;;8.30;99.90;;;;;;5129942;27;19920;-63
2021/12/19 13:45:56;;;;;;;;;;;8.40;99.90;;;;;;5131982;27;19929;-63
2021/12/19 13:48:27;;;;;;;17.20;4.32;;;8.40;99.90;;;;;;5132163;27;19978;-63
2021/12/19 13:51:17;;;;;;;23.20;4.50;;;8.40;99.90;;;;;;5127739;27;20075;-65
2021/12/19 13:53:48;;;;;;;19.00;4.50;;;8.40;99.90;;;;;;5125395;27;20406;-63
2021/12/19 13:56:17;;;;;;;17.33;4.47;;;8.40;99.90;;;;;;5113193;27;20107;-65
2021/12/19 13:59:05;;;;;;;22.45;4.20;;;8.40;99.90;;;;;;5131950;27;20342;-62
2021/12/19 14:01:33;;;;;;;14.27;4.55;;;8.40;99.90;;;;;;5131449;27;20047;-63
2021/12/19 14:04:00;;;;;;;19.75;4.47;;;8.40;99.90;;;;;;5111676;27;20404;-61
2021/12/19 14:06:37;;;;;;;20.60;3.72;;;8.30;99.90;;;;;;5113372;27;20541;-62
2021/12/19 14:09:26;;;;;;;12.40;3.45;;;8.30;99.90;;;;;;5129599;27;20051;-61
2021/12/19 14:12:00;;;;;;;17.88;3.72;;;8.30;99.90;;;;;;5129027;27;20090;-62
2021/12/19 14:14:31;;;;;;;11.40;3.35;;;8.30;99.90;;;;;;5130254;27;20050;-62
2021/12/19 14:17:02;;;;;;;13.30;2.90;;;8.30;99.90;;;;;;5130499;27;20043;-61
2021/12/19 14:19:34;;;;;;;13.52;3.08;;;8.30;99.90;;;;;;5121009;27;20086;-61
2021/12/19 14:22:00;;;;;;;12.32;2.78;;;8.30;99.90;;;;;;5118398;27;20051;-63
2021/12/19 14:24:28;;;;;;;10.75;2.33;;;8.20;99.90;;;;;;5146146;27;20180;-62
2021/12/19 14:27:05;;;;;;;10.75;3.65;;;8.20;99.90;;;;;;5112346;28;20039;-61
2021/12/19 14:29:31;;;;;;;15.55;10.70;;;8.10;99.90;;;;;;5112675;28;20042;-62
2021/12/19 14:32:07;;;;;;;20.58;11.85;;;8.10;99.90;;;;;;5099809;28;20054;-61
2021/12/19 14:34:34;;;;;;;15.60;5.85;;;8.10;99.90;;;;;;5115974;28;20373;-60
2021/12/19 14:37:17;;;;;;;14.82;6.35;;;8.10;99.90;;;;;;5116936;28;20046;-61
2021/12/19 14:40:11;;;;;;;13.73;3.47;;;8.10;99.90;;;;;;5131481;28;20046;-61
2021/12/19 14:42:38;;;;;;;9.23;2.05;;;8.10;99.90;;;;;;5112790;28;20111;-62
2021/12/19 14:45:17;;;;;;;11.10;2.30;;;8.00;99.90;;;;;;5108178;28;20062;-62
2021/12/19 14:47:49;;;;;;;13.60;2.38;;;8.00;99.90;;;;;;5131520;28;20048;-62
2021/12/19 14:50:23;;;;;;;9.02;2.08;;;7.90;99.90;;;;;;5103456;28;20055;-63
2021/12/19 14:53:04;;;;;;;8.20;1.97;;;7.90;99.90;;;;;;5095107;28;20487;-62
2021/12/19 14:55:33;;;;;;;10.32;2.35;;;7.90;99.90;;;;;;5130192;28;20114;-63
2021/12/19 14:58:01;;;;;;;7.85;1.70;;;7.90;99.90;;;;;;5130157;27;20035;-63
2021/12/19 15:00:27;;;;;;;8.13;1.88;;;7.90;99.90;;;;;;5113232;28;20051;-62
2021/12/19 15:02:53;;;;;;;7.80;2.13;;;7.80;99.90;;;;;;5146115;27;20127;-63
2021/12/19 15:05:18;;;;;;;10.02;1.80;;;7.80;99.90;;;;;;5110523;28;20055;-62
2021/12/19 15:07:46;;;;;;;5.20;1.70;;;7.90;99.90;;;;;;5092707;28;20103;-63
2021/12/19 15:10:14;;;;;;;7.25;1.60;;;7.80;99.90;;;;;;5094427;28;20066;-63
2021/12/19 15:12:41;;;;;;;4.47;1.52;;;7.90;99.90;;;;;;5110335;28;20054;-64
2021/12/19 15:15:07;;;;;;;6.32;1.65;;;7.90;99.90;;;;;;5097861;28;20114;-63
2021/12/19 15:17:33;;;;;;;11.00;1.92;;;7.90;99.90;;;;;;5127273;27;20043;-63
2021/12/19 15:20:00;;;;;;;7.63;2.15;;;7.80;99.90;;;;;;5108704;27;20049;-63
2021/12/19 15:22:25;;;;;;;8.10;2.92;;;7.80;99.90;;;;;;5111086;27;20090;-65
2021/12/19 15:24:51;;;;;;;19.05;9.57;;;7.70;99.90;;;;;;5112404;27;20464;-64
2021/12/19 15:27:20;;;;;;;11.10;3.80;;;7.70;99.90;;;;;;5113872;27;20039;-63
2021/12/19 15:29:46;;;;;;;10.68;2.15;;;7.60;99.90;;;;;;5134138;27;20039;-63
2021/12/19 15:32:14;;;;;;;9.55;3.50;;;7.60;99.90;;;;;;5130430;27;20547;-63
2021/12/19 15:34:41;;;;;;;13.48;4.75;;;7.70;99.90;;;;;;5081499;27;20053;-63
2021/12/19 15:37:07;;;;;;;7.22;2.20;;;7.60;99.90;;;;;;5149343;27;20134;-63
2021/12/19 15:39:33;;;;;;;9.30;1.90;;;7.60;99.90;;;;;;5099294;27;20133;-63
2021/12/19 15:41:59;;;;;;;7.15;1.80;;;7.60;99.90;;;;;;5115680;27;20523;-64